To NAV CANADA Home Page Login to a new session Search on AWWS site Feedback and Comments Disclaimer Vers la page française équivalente Tips FAQ What's new on the site To the Forecasts and Observations / NOTAM section To "File a Flight Plan" website Publications and other links Update of the User's profile FIC Telephone Numbers My Weather Data Folder Route Weather Data Regional Weather Data Local Weather Data To the Forecasts and Observations / NOTAM section
Request Generated 08/03/2015 at 21:17:19 UTC . Weather information available at that time is displayed.

METAR/TAF

GRANDE PRAIRIE/AB    

METAR CYQU 032100Z CCA 10012KT 25SM FEW052 SCT120 BKN220 26/13 A2977
RMK CU2AC2CI2 CB TOP DIST S SLP081 DENSITY ALT 4100FT=
METAR CYQU 032100Z 10012KT 25SM FEW059 SCT120 BKN220 26/13 A2977 RMK
CU2AC2CI2 CB TOP DIST S SLP081 DENSITY ALT 4100FT=
METAR CYQU 032000Z 08010G15KT 060V140 25SM FEW050 SCT120 BKN220 25/13
A2979 RMK CF2AC2CI2 SLP089 DENSITY ALT 3900FT=
METAR CYQU 031900Z 10008KT 060V150 25SM FEW050 SCT110 BKN220 24/13
A2981 RMK CF1AC3CI3 SLP093 DENSITY ALT 3800FT=

TAF CYQU 031838Z 0319/0407 08010KT P6SM FEW050 SCT110 BKN220
FM032100 08012G22KT P6SM BKN110 OVC220
BECMG 0322/0324 32008KT
FM040000 32008KT P6SM -RA OVC040 PROB30 0400/0404 VRB15G25KT 4SM
TSRA OVC030CB
FM040400 07008KT 5SM -RA BR BKN012 OVC030
BECMG 0404/0406 23012KT
RMK NXT FCST BY 040100Z=
Your time UTC time
Weather data provided by Environment Canada and NAV CANADA